Time;durP1;ratioP1;P1;durP2;ratioP2;P2;SDS_P1;SDS_P2;PMS_P1;PMS_P2;Temp;Humidity;BMP_temperature;BMP_pressure;BME280_temperature;BME280_humidity;BME280_pressure;Samples;Min_cycle;Max_cycle;Signal;HPM_P1;HPM_P2
2021/05/19 00:00:24;;;;;;;15.32;9.13;;;;;;;8.58;72.10;99832.39;2123997;82;27998;-60
2021/05/19 00:03:28;;;;;;;12.65;7.92;;;;;;;8.56;72.25;99834.27;2144686;83;27670;-60
2021/05/19 00:06:30;;;;;;;15.45;8.75;;;;;;;8.53;72.19;99833.08;2144658;82;31749;-62
2021/05/19 00:09:34;;;;;;;12.65;8.75;;;;;;;8.48;72.33;99828.42;2144789;83;33742;-68
2021/05/19 00:12:36;;;;;;;11.88;8.85;;;;;;;8.46;72.60;99827.14;2145884;82;30384;-68
2021/05/19 00:15:40;;;;;;;11.43;8.38;;;;;;;8.43;72.76;99825.09;2148916;82;27652;-67
2021/05/19 00:18:42;;;;;;;9.53;7.65;;;;;;;8.41;72.75;99822.48;2148882;82;29333;-67
2021/05/19 00:21:44;;;;;;;10.40;7.75;;;;;;;8.38;73.00;99827.11;2148858;82;30875;-68
2021/05/19 00:24:46;;;;;;;12.15;8.00;;;;;;;8.36;73.03;99832.50;2147523;82;33698;-67
2021/05/19 00:27:48;;;;;;;12.25;8.60;;;;;;;8.31;72.99;99831.40;2144878;82;29964;-62
2021/05/19 00:30:55;;;;;;;10.55;7.75;;;;;;;8.27;73.02;99833.84;2148936;82;27634;-63
2021/05/19 00:33:54;;;;;;;12.73;8.93;;;;;;;8.24;73.02;99834.44;2148462;82;29378;-69
2021/05/19 00:36:56;;;;;;;10.75;8.38;;;;;;;8.19;73.16;99834.17;2148859;82;31656;-66
2021/05/19 00:39:58;;;;;;;9.58;8.30;;;;;;;8.16;73.23;99831.68;2146033;82;33045;-69
2021/05/19 00:43:00;;;;;;;11.48;8.60;;;;;;;8.14;73.24;99831.34;2144738;83;29327;-66
2021/05/19 00:46:01;;;;;;;11.43;8.45;;;;;;;8.12;73.28;99836.76;2144808;83;27612;-64
2021/05/19 00:49:04;;;;;;;16.37;9.68;;;;;;;8.08;73.21;99831.16;2148442;82;28641;-68
2021/05/19 00:52:07;;;;;;;13.90;8.95;;;;;;;8.06;73.31;99838.37;2123264;83;30976;-70
2021/05/19 00:55:10;;;;;;;12.13;9.13;;;;;;;8.01;73.37;99835.92;2123891;82;33177;-69
2021/05/19 00:58:13;;;;;;;12.23;7.72;;;;;;;7.96;73.37;99841.92;2159903;82;29508;-69
2021/05/19 01:01:15;;;;;;;11.20;8.90;;;;;;;7.94;73.53;99841.61;2159906;81;27636;-68
2021/05/19 01:04:17;;;;;;;12.37;9.00;;;;;;;7.89;73.63;99846.68;2125213;83;28986;-70
2021/05/19 01:07:25;;;;;;;13.43;8.65;;;;;;;7.87;73.75;99843.22;2098419;83;31324;-70
2021/05/19 01:10:23;;;;;;;12.40;8.25;;;;;;;7.85;73.76;99846.90;2088728;85;32951;-70
2021/05/19 01:13:25;;;;;;;10.70;8.28;;;;;;;7.82;73.90;99852.37;2105033;84;30506;-68
2021/05/19 01:16:27;;;;;;;11.95;8.63;;;;;;;7.82;74.05;99858.58;2103214;83;27673;-69
2021/05/19 01:19:31;;;;;;;12.98;8.90;;;;;;;7.81;74.17;99864.84;2120727;83;28630;-69
2021/05/19 01:22:33;;;;;;;12.47;8.93;;;;;;;7.80;74.06;99860.45;2125234;83;31423;-67
2021/05/19 01:25:36;;;;;;;10.78;9.03;;;;;;;7.79;74.00;99864.05;2125122;83;33327;-69
2021/05/19 01:28:41;;;;;;;11.35;8.23;;;;;;;7.79;74.43;99863.16;2113163;83;29374;-68
2021/05/19 01:31:46;;;;;;;13.83;9.43;;;;;;;7.78;74.34;99865.47;2105227;84;27560;-70
2021/05/19 01:34:48;;;;;;;19.98;9.95;;;;;;;7.77;74.43;99863.73;2090012;85;28646;-67
2021/05/19 01:37:50;;;;;;;13.50;9.10;;;;;;;7.78;74.68;99870.31;2053362;86;30438;-70
2021/05/19 01:40:51;;;;;;;14.78;9.60;;;;;;;7.80;74.65;99868.90;2116646;83;33312;-68
2021/05/19 01:43:53;;;;;;;13.38;10.15;;;;;;;7.80;74.77;99863.56;2125185;83;29033;-70
2021/05/19 01:46:55;;;;;;;14.90;10.40;;;;;;;7.83;74.90;99871.44;2089690;85;27563;-68
2021/05/19 01:49:57;;;;;;;18.30;10.60;;;;;;;7.86;74.86;99872.63;2141093;83;29040;-69
2021/05/19 01:53:03;;;;;;;19.25;12.18;;;;;;;7.88;74.90;99874.28;2088997;85;31429;-70
2021/05/19 01:56:05;;;;;;;18.50;10.70;;;;;;;7.89;74.84;99872.02;2098187;82;33656;-70
2021/05/19 01:59:07;;;;;;;15.90;10.70;;;;;;;7.87;74.72;99867.22;2135776;83;29798;-66
2021/05/19 02:02:09;;;;;;;21.12;12.07;;;;;;;7.87;74.68;99870.37;2130714;83;27586;-62
2021/05/19 02:05:13;;;;;;;18.85;12.13;;;;;;;7.86;74.90;99873.97;2111539;84;29879;-70
2021/05/19 02:08:15;;;;;;;17.02;10.48;;;;;;;7.84;74.82;99879.38;2127519;82;32560;-68
2021/05/19 02:11:17;;;;;;;17.23;12.55;;;;;;;7.83;74.70;99878.98;2153759;82;33001;-69
2021/05/19 02:14:20;;;;;;;19.27;12.20;;;;;;;7.80;74.75;99880.90;2153037;82;29343;-69
2021/05/19 02:17:21;;;;;;;19.67;12.07;;;;;;;7.78;74.83;99882.31;2153023;82;27659;-70
2021/05/19 02:20:24;;;;;;;18.92;11.57;;;;;;;7.76;74.75;99878.84;2152928;82;29057;-69
2021/05/19 02:23:26;;;;;;;18.87;12.55;;;;;;;7.73;74.79;99878.53;2151117;82;32220;-65
2021/05/19 02:26:28;;;;;;;21.52;11.75;;;;;;;7.72;74.79;99878.58;2151341;82;33178;-68
2021/05/19 02:29:29;;;;;;;16.87;12.10;;;;;;;7.69;74.94;99872.92;2150117;82;29771;-66
2021/05/19 02:32:32;;;;;;;18.07;11.75;;;;;;;7.68;74.95;99873.86;2149960;82;27574;-68
2021/05/19 02:35:33;;;;;;;14.23;10.98;;;;;;;7.67;74.86;99869.94;2149862;82;29969;-67
2021/05/19 02:38:35;;;;;;;15.88;11.35;;;;;;;7.65;74.79;99866.47;2149838;82;31414;-69
2021/05/19 02:41:39;;;;;;;15.23;11.35;;;;;;;7.62;74.78;99865.27;2151725;81;33288;-63
2021/05/19 02:44:40;;;;;;;18.35;12.00;;;;;;;7.59;74.76;99871.61;2153588;82;29696;-66
2021/05/19 02:47:42;;;;;;;19.82;11.20;;;;;;;7.56;74.76;99869.08;2153368;82;27605;-68
2021/05/19 02:50:44;;;;;;;16.93;11.55;;;;;;;7.54;74.82;99872.28;2152733;82;28663;-66
2021/05/19 02:53:46;;;;;;;16.73;12.15;;;;;;;7.51;74.93;99881.28;2153649;82;32142;-66
2021/05/19 02:56:48;;;;;;;18.85;12.35;;;;;;;7.50;74.96;99885.33;2153289;82;33071;-64
2021/05/19 02:59:50;;;;;;;16.07;11.65;;;;;;;7.49;75.05;99892.92;2161225;82;30472;-64
2021/05/19 03:02:52;;;;;;;17.27;12.15;;;;;;;7.47;75.06;99892.12;2161277;82;27582;-68
2021/05/19 03:05:54;;;;;;;16.17;11.83;;;;;;;7.45;75.03;99886.39;2160389;82;29116;-62
2021/05/19 03:08:56;;;;;;;17.90;12.05;;;;;;;7.45;75.10;99889.53;2161148;82;32059;-62
2021/05/19 03:11:57;;;;;;;16.73;12.13;;;;;;;7.44;75.10;99891.34;2162015;82;34141;-61
2021/05/19 03:15:00;;;;;;;17.67;12.35;;;;;;;7.45;75.10;99886.87;2161219;81;29703;-61
2021/05/19 03:18:04;;;;;;;17.85;12.07;;;;;;;7.44;75.13;99888.69;2162320;82;27599;-61
2021/05/19 03:21:05;;;;;;;17.02;12.07;;;;;;;7.47;75.11;99889.45;2161868;82;28624;-64
2021/05/19 03:24:08;;;;;;;16.00;11.43;;;;;;;7.51;75.25;99891.06;2161011;82;31862;-61
2021/05/19 03:27:10;;;;;;;17.12;13.00;;;;;;;7.58;75.32;99899.20;2161094;82;32997;-64
2021/05/19 03:30:15;;;;;;;20.77;13.15;;;;;;;7.68;75.47;99909.84;2161153;82;29339;-64
2021/05/19 03:33:16;;;;;;;18.25;12.53;;;;;;;7.80;75.69;99900.45;2161922;82;31220;-61
2021/05/19 03:36:18;;;;;;;21.45;13.72;;;;;;;7.94;75.82;99900.29;2162129;82;29760;-60
2021/05/19 03:39:20;;;;;;;23.57;13.30;;;;;;;8.08;75.80;99902.34;2162584;82;30775;-61
2021/05/19 03:42:22;;;;;;;18.80;12.98;;;;;;;8.18;75.78;99915.64;2161528;82;32978;-63
2021/05/19 03:45:24;;;;;;;21.95;14.78;;;;;;;8.28;75.77;99912.94;2162057;82;29367;-65
2021/05/19 03:48:27;;;;;;;22.37;13.78;;;;;;;8.43;75.83;99917.19;2159582;81;27591;-69
2021/05/19 03:51:30;;;;;;;19.00;13.68;;;;;;;8.60;75.87;99920.41;2162066;82;29767;-61
2021/05/19 03:54:34;;;;;;;21.52;13.53;;;;;;;8.78;75.91;99926.21;2161792;81;32132;-67
2021/05/19 03:57:36;;;;;;;20.27;11.90;;;;;;;8.99;75.86;99926.56;2160361;82;32925;-61
2021/05/19 04:00:39;;;;;;;19.48;12.03;;;;;;;9.18;75.74;99935.41;2152233;82;29344;-66
2021/05/19 04:03:41;;;;;;;16.95;12.00;;;;;;;9.34;75.54;99923.95;2161781;82;28061;-64
2021/05/19 04:06:43;;;;;;;17.98;11.33;;;;;;;9.49;75.41;99931.67;2161983;82;28851;-61
2021/05/19 04:09:44;;;;;;;16.20;11.18;;;;;;;9.60;75.22;99928.45;2161701;82;31349;-67
2021/05/19 04:12:50;;;;;;;20.68;12.58;;;;;;;9.71;75.06;99933.61;2161881;82;32928;-61
2021/05/19 04:15:52;;;;;;;16.05;11.45;;;;;;;9.87;75.11;99932.80;2161825;82;29356;-68
2021/05/19 04:18:54;;;;;;;19.00;11.95;;;;;;;10.04;75.03;99928.76;2162429;82;27545;-69
2021/05/19 04:21:56;;;;;;;18.32;11.28;;;;;;;10.19;74.90;99936.91;2162336;81;28638;-61
2021/05/19 04:24:57;;;;;;;12.50;9.73;;;;;;;10.30;74.60;99930.52;2161882;82;32161;-68
2021/05/19 04:27:59;;;;;;;13.30;9.55;;;;;;;10.46;74.56;99939.08;2161839;82;34091;-62
2021/05/19 04:31:01;;;;;;;16.80;10.32;;;;;;;10.67;74.56;99937.02;2161953;82;30584;-66
2021/05/19 04:34:03;;;;;;;20.45;10.55;;;;;;;10.91;74.64;99933.91;2162827;82;27621;-61
2021/05/19 04:37:08;;;;;;;13.65;9.38;;;;;;;11.17;74.33;99934.22;2162637;81;28664;-62
2021/05/19 04:40:11;;;;;;;12.58;9.65;;;;;;;11.62;74.30;99928.91;2162450;82;31038;-62
2021/05/19 04:43:14;;;;;;;15.00;9.28;;;;;;;12.49;74.61;99933.03;2161850;82;33687;-67
2021/05/19 04:46:16;;;;;;;12.13;8.78;;;;;;;13.47;73.92;99935.15;2149020;82;29311;-61
2021/05/19 04:49:18;;;;;;;10.50;8.65;;;;;;;14.43;72.83;99935.23;2162114;82;27615;-64
2021/05/19 04:52:22;;;;;;;8.48;7.30;;;;;;;15.49;72.16;99926.20;2161800;82;29345;-65
2021/05/19 04:55:24;;;;;;;8.80;7.62;;;;;;;16.39;70.48;99924.17;2161922;82;32081;-62
2021/05/19 04:58:26;;;;;;;10.98;8.50;;;;;;;17.15;68.83;99922.59;2162394;82;34116;-65
2021/05/19 05:01:28;;;;;;;8.53;6.60;;;;;;;17.92;67.91;99924.68;2162507;82;29326;-62
2021/05/19 05:04:30;;;;;;;9.23;6.83;;;;;;;18.67;65.99;99926.72;2162072;82;27653;-62
2021/05/19 05:07:31;;;;;;;7.83;6.30;;;;;;;19.31;64.56;99925.05;2162062;82;29031;-63
2021/05/19 05:10:33;;;;;;;9.50;6.30;;;;;;;19.96;63.37;99930.41;2161943;82;30784;-66
2021/05/19 05:13:35;;;;;;;7.70;6.05;;;;;;;20.54;61.82;99926.64;2161760;82;33297;-65
2021/05/19 05:16:38;;;;;;;7.00;6.17;;;;;;;21.14;60.95;99927.19;2161957;82;29357;-65
2021/05/19 05:19:40;;;;;;;7.15;5.97;;;;;;;21.78;60.21;99938.86;2162530;82;27856;-66
2021/05/19 05:22:44;;;;;;;8.28;5.85;;;;;;;22.43;58.43;99943.59;2162757;82;28666;-65
2021/05/19 05:25:46;;;;;;;7.05;5.35;;;;;;;23.03;58.15;99934.95;2162842;82;30974;-61
2021/05/19 05:28:48;;;;;;;7.95;5.87;;;;;;;23.63;56.21;99937.98;2162258;82;33294;-62
2021/05/19 05:31:49;;;;;;;8.65;6.00;;;;;;;23.87;54.68;99944.48;2161878;82;29360;-61
2021/05/19 05:34:51;;;;;;;6.83;5.20;;;;;;;23.92;53.85;99935.75;2162023;82;27643;-61
2021/05/19 05:37:53;;;;;;;8.80;4.85;;;;;;;24.02;52.75;99940.55;2162616;82;29603;-62
2021/05/19 05:40:55;;;;;;;8.35;5.78;;;;;;;24.10;50.57;99946.02;2162558;82;31931;-62
2021/05/19 05:43:57;;;;;;;9.10;5.28;;;;;;;24.07;51.09;99947.73;2162514;82;33906;-61
2021/05/19 05:46:59;;;;;;;8.68;5.92;;;;;;;24.34;50.24;99951.09;2162550;82;30462;-61
2021/05/19 05:50:03;;;;;;;6.67;5.90;;;;;;;24.38;48.70;99956.56;2162579;82;27705;-62
2021/05/19 05:53:05;;;;;;;6.63;5.93;;;;;;;23.90;48.65;99966.03;2162674;82;28610;-64
2021/05/19 05:56:06;;;;;;;7.35;6.42;;;;;;;23.42;48.65;99960.35;2162194;82;31370;-62
2021/05/19 05:59:10;;;;;;;7.35;5.47;;;;;;;23.20;48.23;99963.19;2161328;82;34096;-63
2021/05/19 06:02:12;;;;;;;6.97;5.83;;;;;;;23.06;48.72;99969.64;2161445;82;29337;-63
2021/05/19 06:05:15;;;;;;;10.58;5.90;;;;;;;22.99;48.74;99971.84;2161380;82;27606;-69
2021/05/19 06:08:16;;;;;;;6.95;5.70;;;;;;;22.76;48.61;99966.44;2161259;82;28614;-66
2021/05/19 06:11:18;;;;;;;7.15;5.65;;;;;;;22.51;48.47;99974.17;2161187;82;32138;-67
2021/05/19 06:14:21;;;;;;;8.48;5.85;;;;;;;22.21;48.66;99977.20;2161055;82;33901;-61
2021/05/19 06:17:22;;;;;;;8.73;6.25;;;;;;;21.95;48.63;99987.59;2161454;82;30457;-62
2021/05/19 06:20:24;;;;;;;7.15;5.45;;;;;;;21.58;48.39;99986.39;2162434;81;27531;-60
2021/05/19 06:23:26;;;;;;;9.15;5.72;;;;;;;21.14;48.83;99977.58;2162140;82;28969;-60
2021/05/19 06:26:28;;;;;;;6.45;5.67;;;;;;;20.92;49.21;99990.11;2162306;81;30998;-62
2021/05/19 06:29:30;;;;;;;8.25;5.83;;;;;;;20.78;49.13;99987.38;2162101;82;33301;-59
2021/05/19 06:32:31;;;;;;;6.72;6.00;;;;;;;20.73;49.57;99987.45;2162105;82;28852;-61
2021/05/19 06:35:33;;;;;;;7.67;6.20;;;;;;;20.62;49.37;99990.69;2162131;82;27661;-70
2021/05/19 06:38:35;;;;;;;6.65;5.97;;;;;;;20.50;49.63;99983.72;2161563;82;28602;-59
2021/05/19 06:41:37;;;;;;;7.53;6.42;;;;;;;20.45;49.42;99974.66;2161147;82;30977;-60
2021/05/19 06:44:39;;;;;;;9.33;6.90;;;;;;;20.34;49.67;99980.28;2160967;82;33045;-69
2021/05/19 06:47:40;;;;;;;9.33;6.50;;;;;;;20.38;49.69;99978.95;2161046;82;29710;-68
2021/05/19 06:50:44;;;;;;;10.20;5.62;;;;;;;20.50;49.77;99974.20;2154052;82;28246;-69
2021/05/19 06:53:46;;;;;;;7.78;5.67;;;;;;;20.63;49.71;99974.72;2157119;82;28814;-68
2021/05/19 06:56:48;;;;;;;8.50;6.17;;;;;;;20.82;49.84;99977.55;2161777;82;31669;-71
2021/05/19 06:59:50;;;;;;;6.10;5.12;;;;;;;20.97;49.29;99977.88;2162194;82;32920;-65
2021/05/19 07:02:52;;;;;;;7.90;5.55;;;;;;;21.12;49.06;99975.52;2149214;82;30094;-62
2021/05/19 07:05:54;;;;;;;8.38;5.10;;;;;;;21.57;49.26;99980.06;2193496;80;27680;-61
2021/05/19 07:08:56;;;;;;;7.72;5.25;;;;;;;21.96;48.41;99979.77;2200505;80;28227;-62
2021/05/19 07:11:57;;;;;;;6.12;4.90;;;;;;;21.92;47.69;99978.87;2200665;80;30986;-62
2021/05/19 07:15:09;;;;;;;10.05;5.58;;;;;;;21.95;47.56;99979.90;2198059;80;33306;-60
2021/05/19 07:18:08;;;;;;;9.30;4.83;;;;;;;22.49;48.06;99970.75;2199397;80;29338;-61
2021/05/19 07:21:10;;;;;;;5.60;5.10;;;;;;;22.90;46.49;99967.70;2200808;80;27561;-61
2021/05/19 07:24:12;;;;;;;8.10;3.95;;;;;;;23.49;47.30;99962.77;2198823;80;29963;-61
2021/05/19 07:27:14;;;;;;;4.78;3.95;;;;;;;24.27;45.17;99966.52;2162746;80;31535;-64
2021/05/19 07:30:18;;;;;;;6.37;4.25;;;;;;;24.80;45.16;99965.53;2125521;83;33313;-65
2021/05/19 07:33:20;;;;;;;9.13;4.42;;;;;;;25.08;44.10;99966.42;2125755;83;29695;-69
2021/05/19 07:36:22;;;;;;;5.75;3.90;;;;;;;25.13;43.43;99964.53;2125771;83;27630;-67
2021/05/19 07:39:26;;;;;;;5.07;4.43;;;;;;;24.94;43.23;99963.06;2090219;80;27604;-66
2021/05/19 07:42:28;;;;;;;6.05;4.40;;;;;;;24.81;43.25;99954.07;2090297;85;31354;-66
2021/05/19 07:45:30;;;;;;;4.58;3.98;;;;;;;24.54;42.99;99958.42;2090167;85;34059;-63
2021/05/19 07:48:32;;;;;;;5.85;4.28;;;;;;;24.19;42.74;99955.08;2090129;85;30373;-63
2021/05/19 07:51:35;;;;;;;5.35;4.12;;;;;;;23.75;42.44;99956.77;2090118;85;27701;-68
2021/05/19 07:54:37;;;;;;;4.62;4.03;;;;;;;23.24;42.42;99970.07;2090313;85;28655;-68
2021/05/19 08:03:58;;;;;;;6.60;4.25;;;;;;;21.79;42.98;99965.64;2105011;84;30474;-66
2021/05/19 08:07:04;;;;;;;5.15;3.67;;;;;;;21.41;43.42;99969.87;2073164;85;27720;-67
2021/05/19 08:10:07;;;;;;;4.85;3.62;;;;;;;21.05;43.51;99968.46;2073098;85;29803;-69
2021/05/19 08:13:09;;;;;;;6.40;3.33;;;;;;;20.68;43.65;99966.61;2072857;85;31861;-66
2021/05/19 08:16:11;;;;;;;7.28;3.35;;;;;;;20.34;43.98;99970.24;2039278;85;33973;-66
2021/05/19 08:19:14;;;;;;;3.98;2.77;;;;;;;20.13;44.58;99967.73;2037871;87;29347;-65
2021/05/19 08:22:15;;;;;;;4.30;3.10;;;;;;;20.03;44.75;99970.95;2038068;87;27719;-68
2021/05/19 08:25:17;;;;;;;3.77;3.45;;;;;;;19.84;44.73;99971.33;2056528;85;28756;-64
2021/05/19 08:28:19;;;;;;;4.12;3.08;;;;;;;19.65;44.62;99968.10;2063519;85;31738;-61
2021/05/19 08:31:21;;;;;;;3.17;2.87;;;;;;;19.47;44.75;99974.77;2038001;85;33319;-66
2021/05/19 08:34:22;;;;;;;5.80;3.60;;;;;;;19.30;45.53;99976.30;2041820;85;30670;-64
2021/05/19 08:37:24;;;;;;;5.67;3.77;;;;;;;19.13;45.98;99977.34;2072598;85;27725;-67
2021/05/19 08:40:28;;;;;;;4.10;3.25;;;;;;;19.01;46.28;99983.05;2076728;85;29039;-63
2021/05/19 08:43:31;;;;;;;4.30;2.75;;;;;;;18.92;46.52;99979.28;2139284;81;30991;-64
2021/05/19 08:46:33;;;;;;;2.67;2.15;;;;;;;18.87;46.69;99974.25;2167076;81;32941;-68
2021/05/19 08:49:36;;;;;;;5.35;2.25;;;;;;;18.84;46.59;99984.05;2166272;81;30383;-69
2021/05/19 08:52:38;;;;;;;3.05;2.30;;;;;;;18.85;46.48;99982.17;2166455;82;27586;-69
2021/05/19 08:55:40;;;;;;;2.83;2.20;;;;;;;18.86;47.03;99988.84;2166121;81;29359;-64
2021/05/19 08:58:42;;;;;;;3.67;2.05;;;;;;;18.93;47.57;99983.20;2166715;81;30967;-68
2021/05/19 09:01:47;;;;;;;5.05;2.20;;;;;;;19.08;47.54;99979.64;2172165;81;32996;-64
2021/05/19 09:04:54;;;;;;;3.40;2.15;;;;;;;19.24;47.58;99979.09;2172897;81;30067;-61
2021/05/19 09:08:10;;;;;;;2.75;1.75;;;;;;;19.39;47.34;99975.47;2172479;81;27624;-60
2021/05/19 09:11:13;;;;;;;2.37;1.85;;;;;;;19.52;46.74;99979.77;2137201;83;28988;-67
2021/05/19 09:14:15;;;;;;;3.47;1.57;;;;;;;19.59;46.69;99967.34;2135194;83;30999;-62
2021/05/19 09:17:29;;;;;;;2.08;1.37;;;;;;;19.67;46.64;99972.90;2135952;83;34220;-64
2021/05/19 09:20:31;;;;;;;3.80;2.27;;;;;;;19.73;46.01;99975.05;2166765;81;29471;-64
2021/05/19 09:23:50;;;;;;;4.10;1.80;;;;;;;19.79;45.39;99968.18;2166489;81;27582;-67
2021/05/19 09:26:58;;;;;;;4.22;2.05;;;;;;;19.82;45.42;99968.38;2166133;81;29871;-60
2021/05/19 09:30:00;;;;;;;2.02;1.85;;;;;;;19.94;45.20;99966.40;2170836;81;30971;-61
2021/05/19 09:33:18;;;;;;;1.98;1.67;;;;;;;20.09;45.58;99968.18;2173178;81;34072;-61
2021/05/19 09:36:21;;;;;;;2.95;2.00;;;;;;;20.29;45.55;99966.26;2172430;80;29372;-63
2021/05/19 09:39:23;;;;;;;4.12;2.00;;;;;;;20.48;44.80;99962.12;2173956;81;28066;-61
2021/05/19 09:42:39;;;;;;;2.55;1.62;;;;;;;20.63;44.59;99957.55;2171769;81;29810;-61
2021/05/19 09:45:42;;;;;;;3.12;1.65;;;;;;;20.79;44.05;99955.55;2171896;81;31280;-61
2021/05/19 09:48:45;;;;;;;3.87;1.60;;;;;;;20.97;44.24;99941.99;2143200;83;35073;-67
2021/05/19 09:51:52;;;;;;;2.77;1.57;;;;;;;21.10;43.47;99945.20;2143180;83;29305;-61
2021/05/19 09:55:03;;;;;;;2.50;1.82;;;;;;;21.15;43.01;99949.34;2146480;82;28173;-64
2021/05/19 09:58:08;;;;;;;2.08;1.47;;;;;;;21.23;43.71;99943.95;2144241;82;29935;-61
2021/05/19 10:01:10;;;;;;;3.25;2.00;;;;;;;21.32;42.67;99948.50;2143486;82;32307;-60
2021/05/19 10:04:12;;;;;;;1.90;1.70;;;;;;;21.31;42.58;99944.06;2146787;82;32937;-65
2021/05/19 10:07:16;;;;;;;2.30;1.30;;;;;;;21.39;41.92;99947.37;2145695;82;29919;-68
2021/05/19 10:10:18;;;;;;;2.90;1.65;;;;;;;21.35;41.18;99941.87;2179281;81;27678;-68
2021/05/19 10:13:19;;;;;;;1.47;1.35;;;;;;;21.38;41.44;99937.48;2171845;81;28803;-62
2021/05/19 10:16:21;;;;;;;1.98;1.27;;;;;;;21.51;41.12;99939.30;2171869;81;30770;-67
2021/05/19 10:19:28;;;;;;;1.85;1.50;;;;;;;21.56;41.15;99933.37;2171890;81;33413;-65
2021/05/19 10:22:32;;;;;;;4.72;1.35;;;;;;;21.66;41.10;99938.77;2177105;81;29387;-60
2021/05/19 10:25:39;;;;;;;2.33;1.40;;;;;;;21.85;41.60;99938.59;2143288;83;27624;-67
2021/05/19 10:28:45;;;;;;;4.70;1.57;;;;;;;22.03;41.40;99930.88;2179119;81;28604;-69
2021/05/19 10:31:46;;;;;;;3.12;1.40;;;;;;;22.32;40.72;99936.51;2142366;83;30963;-64
2021/05/19 10:34:50;;;;;;;2.87;1.60;;;;;;;22.56;40.15;99937.17;2196527;80;34057;-61
2021/05/19 10:37:54;;;;;;;2.15;1.42;;;;;;;22.71;39.69;99940.16;2197747;80;30000;-61
2021/05/19 10:41:03;;;;;;;2.63;1.73;;;;;;;22.90;40.34;99938.17;2192466;80;27554;-63
2021/05/19 10:44:10;;;;;;;2.10;1.52;;;;;;;22.99;39.60;99942.63;2143078;83;28633;-65
2021/05/19 10:47:15;;;;;;;3.37;1.60;;;;;;;22.84;39.16;99939.67;2179122;81;30957;-61
2021/05/19 10:50:27;;;;;;;2.72;1.72;;;;;;;22.63;39.29;99940.63;2093683;83;33001;-63
2021/05/19 11:00:22;;;;;;;4.22;2.00;;;;;;;21.54;39.94;99943.08;2179095;81;29795;-64
2021/05/19 11:03:24;;;;;;;2.85;2.10;;;;;;;20.99;41.09;99956.80;2136713;83;33116;-61
2021/05/19 11:06:25;;;;;;;4.22;2.10;;;;;;;20.44;41.99;99957.09;2165985;81;34228;-63
2021/05/19 11:09:33;;;;;;;2.72;2.15;;;;;;;20.08;41.98;99956.42;2165955;82;30582;-62
2021/05/19 11:12:45;;;;;;;1.90;1.80;;;;;;;19.88;42.30;99946.94;2169956;81;27851;-61
2021/05/19 11:19:01;;;;;;;1.87;1.65;;;;;;;19.49;42.71;99954.23;2179064;81;31744;-70
2021/05/19 11:22:02;;;;;;;1.98;1.55;;;;;;;19.39;42.67;99955.58;2140600;81;32841;-63
2021/05/19 11:25:06;;;;;;;3.15;1.75;;;;;;;19.39;42.71;99948.31;2179004;80;30049;-62
2021/05/19 11:28:08;;;;;;;3.45;1.92;;;;;;;19.53;42.84;99948.36;2143085;83;28328;-65
2021/05/19 11:31:14;;;;;;;2.05;1.87;;;;;;;19.71;43.01;99945.80;2179187;81;28942;-70
2021/05/19 11:34:20;;;;;;;2.77;2.00;;;;;;;19.79;42.31;99941.48;2142780;83;30999;-62
2021/05/19 11:37:23;;;;;;;5.95;2.52;;;;;;;19.66;41.99;99926.34;2178913;81;33694;-62
2021/05/19 11:40:42;;;;;;;1.85;1.72;;;;;;;19.59;41.49;99933.37;2122288;83;29715;-69
2021/05/19 11:43:44;;;;;;;1.77;1.67;;;;;;;19.28;41.56;99931.64;2137853;83;27595;-67
2021/05/19 11:46:45;;;;;;;1.90;1.40;;;;;;;19.02;41.83;99928.61;2137832;83;28612;-66
2021/05/19 11:49:47;;;;;;;3.30;2.37;;;;;;;18.86;42.02;99933.20;2130571;82;32048;-62
2021/05/19 11:53:00;;;;;;;3.95;1.75;;;;;;;18.75;42.15;99931.94;2131034;83;33336;-63
2021/05/19 11:56:03;;;;;;;3.50;1.65;;;;;;;18.70;43.12;99928.80;2136567;83;30392;-61
2021/05/19 11:59:21;;;;;;;3.52;1.60;;;;;;;18.72;43.27;99938.52;2136423;83;27533;-61
2021/05/19 12:02:23;;;;;;;2.10;1.62;;;;;;;18.67;42.64;99937.58;2136811;83;29006;-61
2021/05/19 12:05:25;;;;;;;2.87;1.60;;;;;;;18.57;41.87;99932.59;2136641;83;31544;-61
2021/05/19 12:08:38;;;;;;;3.00;1.70;;;;;;;18.55;42.24;99931.02;2134913;83;33989;-60
2021/05/19 12:11:40;;;;;;;1.52;1.32;;;;;;;18.62;42.42;99934.41;2131328;83;29730;-61
2021/05/19 12:14:58;;;;;;;2.60;1.40;;;;;;;18.75;42.18;99933.30;2136747;83;27594;-63
2021/05/19 12:18:03;;;;;;;3.27;1.90;;;;;;;18.91;42.02;99934.14;2136728;83;29600;-62
2021/05/19 12:21:11;;;;;;;3.95;2.00;;;;;;;19.00;42.88;99944.17;2136901;83;31103;-61
2021/05/19 12:24:16;;;;;;;2.40;1.85;;;;;;;19.00;43.76;99951.48;2136798;83;35107;-68
2021/05/19 12:27:21;;;;;;;3.55;1.77;;;;;;;18.98;44.17;99952.47;2142789;82;29315;-62
2021/05/19 12:30:23;;;;;;;3.72;2.00;;;;;;;18.95;44.42;99956.81;2130737;82;28174;-61
2021/05/19 12:33:42;;;;;;;5.47;1.82;;;;;;;18.89;44.76;99964.63;2129671;83;28668;-69
2021/05/19 12:36:56;;;;;;;3.37;2.00;;;;;;;18.83;45.29;99966.89;2129599;83;30972;-67
2021/05/19 12:40:00;;;;;;;4.08;1.52;;;;;;;18.75;46.12;99978.06;2158003;81;32926;-60
2021/05/19 12:43:06;;;;;;;2.02;1.67;;;;;;;18.58;46.95;99969.58;2146941;81;29541;-60
2021/05/19 12:46:16;;;;;;;3.33;1.45;;;;;;;18.49;47.75;99966.34;2171521;80;27656;-61
2021/05/19 12:49:21;;;;;;;4.17;1.77;;;;;;;18.36;47.62;99973.34;2146080;81;29936;-62
2021/05/19 12:52:24;;;;;;;3.73;1.37;;;;;;;18.22;47.97;99962.33;2131548;81;32233;-60
2021/05/19 12:55:26;;;;;;;3.05;1.45;;;;;;;18.17;48.01;99966.81;2170793;80;33459;-60
2021/05/19 12:58:29;;;;;;;1.90;1.32;;;;;;;18.12;48.44;99961.43;2117379;82;29761;-62
2021/05/19 13:01:47;;;;;;;4.45;2.20;;;;;;;18.12;48.35;99961.43;2181992;80;28137;-61
2021/05/19 13:04:50;;;;;;;2.65;1.52;;;;;;;18.22;48.36;99961.85;2176861;80;28581;-66
2021/05/19 13:07:52;;;;;;;2.15;1.70;;;;;;;18.36;48.41;99971.50;2145637;81;31625;-59
2021/05/19 13:10:55;;;;;;;2.60;1.30;;;;;;;18.51;48.35;99967.91;2180503;80;33791;-59
2021/05/19 13:13:58;;;;;;;4.12;1.62;;;;;;;18.70;48.38;99963.56;2145805;82;30422;-59
2021/05/19 13:17:03;;;;;;;3.65;1.57;;;;;;;18.91;48.35;99960.77;2184578;80;27556;-59
2021/05/19 13:20:11;;;;;;;1.75;1.65;;;;;;;19.07;47.78;99956.20;2182040;80;29144;-59
2021/05/19 13:23:12;;;;;;;2.83;1.85;;;;;;;19.24;47.52;99953.80;2144005;82;31214;-59
2021/05/19 13:26:17;;;;;;;4.83;1.87;;;;;;;19.44;47.55;99957.38;2180993;80;34114;-60
2021/05/19 13:29:18;;;;;;;1.70;1.60;;;;;;;19.66;47.32;99967.62;2153592;81;29989;-60
2021/05/19 13:32:35;;;;;;;2.45;1.50;;;;;;;19.80;46.73;99964.46;2216640;80;27949;-61
2021/05/19 13:39:00;;;;;;;2.17;1.50;;;;;;;19.82;46.13;99964.30;2170091;82;32245;-67
2021/05/19 13:42:05;;;;;;;4.30;1.80;;;;;;;19.87;46.20;99955.25;2182521;80;32969;-60
2021/05/19 13:45:08;;;;;;;5.70;1.77;;;;;;;19.87;45.74;99960.17;2180272;80;30079;-60
2021/05/19 13:48:10;;;;;;;3.62;1.92;;;;;;;19.83;45.66;99955.14;2162008;81;27696;-61
2021/05/19 13:51:12;;;;;;;3.05;1.98;;;;;;;19.79;45.40;99961.38;2147129;82;28661;-62
2021/05/19 13:54:14;;;;;;;4.28;1.70;;;;;;;19.67;45.61;99961.19;2146686;82;30994;-65
2021/05/19 13:57:16;;;;;;;2.33;2.05;;;;;;;19.57;45.91;99967.46;2149851;81;32941;-66
2021/05/19 14:00:18;;;;;;;5.12;1.98;;;;;;;19.46;45.86;99970.33;2160671;81;29473;-62
2021/05/19 14:03:25;;;;;;;2.67;1.82;;;;;;;19.32;46.02;99973.47;2146385;82;28235;-61
2021/05/19 14:06:23;;;;;;;1.98;1.42;;;;;;;19.24;46.41;99969.58;2163941;81;29763;-61
2021/05/19 14:09:26;;;;;;;1.98;1.67;;;;;;;19.21;46.33;99967.66;2166086;81;32327;-60
2021/05/19 14:12:39;;;;;;;2.02;1.72;;;;;;;19.20;46.58;99972.73;2165957;81;33704;-60
2021/05/19 14:16:02;;;;;;;2.10;1.90;;;;;;;19.14;45.52;99967.36;2179983;80;29661;-66
2021/05/19 14:19:10;;;;;;;2.67;1.90;;;;;;;19.08;46.05;99972.86;2137404;83;27541;-61
2021/05/19 14:28:45;;;;;;;3.67;2.30;;;;;;;18.99;46.15;99973.67;2184555;81;33360;-64
2021/05/19 14:31:47;;;;;;;3.45;2.27;;;;;;;18.92;46.49;99977.41;2184702;81;29820;-61
2021/05/19 14:34:58;;;;;;;3.27;2.40;;;;;;;18.95;47.05;99979.02;2184730;81;27703;-60
2021/05/19 14:38:59;;;;;;;2.43;1.83;;;;;;;18.91;46.10;99982.48;2183878;81;29040;-61
2021/05/19 15:00:59;;;;;;;0.80;0.80;;;;;;;17.82;44.98;99988.80;2179163;81;34120;-63
2021/05/19 15:04:01;;;;;;;1.00;0.88;;;;;;;17.80;45.24;99983.49;2196559;80;29472;-60
2021/05/19 15:07:03;;;;;;;2.17;1.15;;;;;;;17.76;45.13;99991.03;2198595;80;27584;-73